createdAt,value
2018-03-25T00:00:45.721Z,93.40
2018-03-25T00:03:13.236Z,93.40
2018-03-25T00:05:40.736Z,93.30
2018-03-25T00:08:08.225Z,93.30
2018-03-25T00:10:36.507Z,93.40
2018-03-25T00:13:04.763Z,93.50
2018-03-25T00:15:32.250Z,93.50
2018-03-25T00:17:59.759Z,93.50
2018-03-25T00:20:27.243Z,93.50
2018-03-25T00:22:54.751Z,93.60
2018-03-25T00:25:22.267Z,93.60
2018-03-25T00:27:50.518Z,93.70
2018-03-25T00:30:18.006Z,93.70
2018-03-25T00:32:46.286Z,93.60
2018-03-25T00:35:14.534Z,93.60
2018-03-25T00:37:42.014Z,93.60
2018-03-25T00:40:10.283Z,93.50
2018-03-25T00:42:38.529Z,93.30
2018-03-25T00:45:06.019Z,93.30
2018-03-25T00:47:34.296Z,93.60
2018-03-25T00:50:01.780Z,93.20
2018-03-25T00:52:29.262Z,93.30
2018-03-25T00:54:56.762Z,93.20
2018-03-25T00:57:25.014Z,93.20
2018-03-25T00:59:52.498Z,93.20
2018-03-25T01:02:20.767Z,93.30
2018-03-25T01:04:49.029Z,93.40
2018-03-25T01:07:16.519Z,93.40
2018-03-25T01:09:44.025Z,93.50
2018-03-25T01:12:11.515Z,93.50
2018-03-25T01:14:39.031Z,93.50
2018-03-25T01:17:07.288Z,93.70
2018-03-25T01:19:34.787Z,93.70
2018-03-25T01:22:02.302Z,93.80
2018-03-25T01:24:29.794Z,93.80
2018-03-25T01:26:57.282Z,93.70
2018-03-25T01:29:24.797Z,93.70
2018-03-25T01:31:52.287Z,93.70
2018-03-25T01:34:19.770Z,93.70
2018-03-25T01:36:48.033Z,93.90
2018-03-25T01:39:16.282Z,93.80
2018-03-25T01:41:44.549Z,93.80
2018-03-25T01:44:12.042Z,93.80
2018-03-25T01:46:40.293Z,93.80
2018-03-25T01:49:07.811Z,93.80
2018-03-25T01:51:35.285Z,93.90
2018-03-25T01:54:03.534Z,93.70
2018-03-25T01:56:31.117Z,93.90
2018-03-25T01:58:58.594Z,94.10
2018-03-25T02:01:26.078Z,94.10
2018-03-25T02:03:53.710Z,94.10
2018-03-25T02:06:21.245Z,94.20
2018-03-25T02:08:48.729Z,94.30
2018-03-25T02:11:16.237Z,94.20
2018-03-25T02:13:43.722Z,94.10
2018-03-25T02:16:11.214Z,94.10
2018-03-25T02:18:38.734Z,94.10
2018-03-25T02:21:06.218Z,94.10
2018-03-25T02:23:33.711Z,94.10
2018-03-25T02:26:01.980Z,94.10
2018-03-25T02:28:30.226Z,94.20
2018-03-25T02:30:57.710Z,94.10
2018-03-25T02:33:26.011Z,94.20
2018-03-25T02:35:53.501Z,94.20
2018-03-25T02:38:20.988Z,94.20
2018-03-25T02:40:48.491Z,94.30
2018-03-25T02:43:15.974Z,94.30
2018-03-25T02:45:43.484Z,94.30
2018-03-25T02:48:11.746Z,94.30
2018-03-25T02:50:40.006Z,94.30
2018-03-25T02:53:07.509Z,94.20
2018-03-25T02:55:34.993Z,94.20
2018-03-25T02:58:02.488Z,94.20
2018-03-25T03:00:29.990Z,94.20
2018-03-25T03:02:57.478Z,94.30
2018-03-25T03:05:24.992Z,94.40
2018-03-25T03:07:52.476Z,94.30
2018-03-25T03:10:19.963Z,94.40
2018-03-25T03:12:47.466Z,94.50
2018-03-25T03:15:14.943Z,94.40
2018-03-25T03:17:42.431Z,94.30
2018-03-25T03:20:10.118Z,94.30
2018-03-25T03:22:38.373Z,94.40
2018-03-25T03:25:05.864Z,94.30
2018-03-25T03:27:33.409Z,94.50
2018-03-25T03:30:01.661Z,94.60
2018-03-25T03:32:29.154Z,94.50
2018-03-25T03:34:57.432Z,94.40
2018-03-25T03:37:25.762Z,94.40
2018-03-25T03:39:53.522Z,94.40
2018-03-25T03:42:21.026Z,94.40
2018-03-25T03:44:49.270Z,94.50
2018-03-25T03:47:16.756Z,94.50
2018-03-25T03:49:45.027Z,94.50
2018-03-25T03:52:15.198Z,94.50
2018-03-25T03:54:42.678Z,94.50
2018-03-25T03:57:10.173Z,94.50
2018-03-25T03:59:37.754Z,94.50
2018-03-25T04:02:05.258Z,94.50
2018-03-25T04:04:32.747Z,94.40
2018-03-25T04:07:00.255Z,94.60
2018-03-25T04:09:27.950Z,94.50
2018-03-25T04:11:56.206Z,94.50
2018-03-25T04:14:23.695Z,94.50
2018-03-25T04:16:51.970Z,94.60
2018-03-25T04:19:20.254Z,94.50
2018-03-25T04:21:48.005Z,94.50
2018-03-25T04:24:15.542Z,94.40
2018-03-25T04:26:43.023Z,94.40
2018-03-25T04:29:11.279Z,94.50
2018-03-25T04:31:38.779Z,94.40
2018-03-25T04:34:06.267Z,94.50
2018-03-25T04:36:33.750Z,94.50
2018-03-25T04:39:01.245Z,94.50
2018-03-25T04:41:28.726Z,94.50
2018-03-25T04:43:56.209Z,94.40
2018-03-25T04:46:24.474Z,94.40
2018-03-25T04:48:51.967Z,94.40
2018-03-25T04:51:20.214Z,94.40
2018-03-25T04:53:47.714Z,94.40
2018-03-25T04:56:15.962Z,94.40
2018-03-25T04:58:43.473Z,94.40
2018-03-25T05:01:10.966Z,94.40
2018-03-25T05:03:38.455Z,94.40
2018-03-25T05:06:06.722Z,94.50
2018-03-25T05:08:34.226Z,94.80
2018-03-25T05:11:01.727Z,94.50
2018-03-25T05:13:29.211Z,94.50
2018-03-25T05:15:57.486Z,94.50
2018-03-25T05:18:25.739Z,94.50
2018-03-25T05:20:53.459Z,94.50
2018-03-25T05:23:21.009Z,94.50
2018-03-25T05:25:48.494Z,94.60
2018-03-25T05:28:15.983Z,94.70
2018-03-25T05:30:44.251Z,94.20
2018-03-25T05:33:11.739Z,94.20
2018-03-25T05:35:39.222Z,94.40
2018-03-25T05:38:06.735Z,94.40
2018-03-25T05:40:34.987Z,94.20
2018-03-25T05:43:02.499Z,94.20
2018-03-25T05:45:29.986Z,94.00
2018-03-25T05:47:57.479Z,93.70
2018-03-25T05:50:25.761Z,93.80
2018-03-25T05:52:55.207Z,94.50
2018-03-25T05:55:22.948Z,94.10
2018-03-25T05:57:50.561Z,92.90
2018-03-25T06:00:18.042Z,89.00
2018-03-25T06:02:46.470Z,81.50
2018-03-25T06:05:15.893Z,81.40
2018-03-25T06:07:43.437Z,78.80
2018-03-25T06:10:10.958Z,77.20
2018-03-25T06:12:38.467Z,72.30
2018-03-25T06:15:10.822Z,71.20
2018-03-25T06:17:40.339Z,68.80
2018-03-25T06:20:07.819Z,66.30
2018-03-25T06:22:35.297Z,63.80
2018-03-25T06:25:02.813Z,62.60
2018-03-25T06:27:36.815Z,61.60
2018-03-25T06:30:04.323Z,61.50
2018-03-25T06:32:32.594Z,57.00
2018-03-25T06:35:00.850Z,57.00
2018-03-25T06:37:28.359Z,57.00
2018-03-25T06:39:57.778Z,57.70
2018-03-25T06:42:25.261Z,54.50
2018-03-25T06:44:52.769Z,51.00
2018-03-25T06:47:20.260Z,51.00
2018-03-25T06:49:48.522Z,49.30
2018-03-25T06:52:20.485Z,49.30
2018-03-25T06:54:48.045Z,48.60
2018-03-25T06:57:15.528Z,49.50
2018-03-25T06:59:43.210Z,49.90
2018-03-25T07:02:13.388Z,48.60
2018-03-25T07:04:40.870Z,48.50
2018-03-25T07:07:08.542Z,47.00
2018-03-25T07:09:36.023Z,47.30
2018-03-25T07:12:03.506Z,47.70
2018-03-25T07:14:31.246Z,46.90
2018-03-25T07:16:58.694Z,46.90
2018-03-25T07:19:26.950Z,46.70
2018-03-25T07:22:00.226Z,46.60
2018-03-25T07:24:27.710Z,45.00
2018-03-25T07:26:55.961Z,42.00
2018-03-25T07:29:23.472Z,42.00
2018-03-25T07:31:54.941Z,42.10
2018-03-25T07:34:22.422Z,41.40
2018-03-25T07:36:50.406Z,41.80
2018-03-25T07:39:18.092Z,42.90
2018-03-25T07:41:50.434Z,43.90
2018-03-25T07:44:17.923Z,44.00
2018-03-25T07:46:46.170Z,43.20
2018-03-25T07:49:13.672Z,43.20
2018-03-25T07:51:44.947Z,43.10
2018-03-25T07:54:13.215Z,41.90
2018-03-25T07:56:40.697Z,41.90
2018-03-25T07:59:08.178Z,43.90
2018-03-25T08:01:36.454Z,44.10
2018-03-25T08:04:04.726Z,42.30
2018-03-25T08:06:33.981Z,39.30
2018-03-25T08:09:01.614Z,39.20
2018-03-25T08:11:29.101Z,39.50
2018-03-25T08:13:56.597Z,39.90
2018-03-25T08:16:25.071Z,42.60
2018-03-25T08:18:52.570Z,41.40
2018-03-25T08:21:20.064Z,41.20
2018-03-25T08:23:47.567Z,42.00
2018-03-25T08:26:15.868Z,38.90
2018-03-25T08:28:43.350Z,39.00
2018-03-25T08:31:11.049Z,38.50
2018-03-25T08:33:39.352Z,41.80
2018-03-25T08:36:06.834Z,41.70
2018-03-25T08:38:35.343Z,40.30
2018-03-25T08:41:02.884Z,47.20
2018-03-25T08:43:30.366Z,51.30
2018-03-25T08:45:59.859Z,53.40
2018-03-25T08:48:27.333Z,55.90
2018-03-25T08:50:54.814Z,60.70
2018-03-25T08:53:24.074Z,59.20
2018-03-25T08:55:51.554Z,59.10
2018-03-25T08:58:19.038Z,61.40
2018-03-25T09:00:49.366Z,63.50
2018-03-25T09:03:17.095Z,64.80
2018-03-25T09:05:46.113Z,63.40
2018-03-25T09:08:14.536Z,66.10
2018-03-25T09:10:42.014Z,65.90
2018-03-25T09:13:09.494Z,67.40
2018-03-25T09:15:37.784Z,60.10
2018-03-25T09:18:06.036Z,61.60
2018-03-25T09:20:33.523Z,61.60
2018-03-25T09:23:01.028Z,61.70
2018-03-25T09:25:28.521Z,65.60
2018-03-25T09:27:56.018Z,63.60
2018-03-25T09:30:23.511Z,59.30
2018-03-25T09:32:51.066Z,62.90
2018-03-25T09:35:19.017Z,60.70
2018-03-25T09:37:46.518Z,64.50
2018-03-25T09:40:14.006Z,63.20
2018-03-25T09:42:42.265Z,60.90
2018-03-25T09:45:10.522Z,62.30
2018-03-25T09:47:37.999Z,62.30
2018-03-25T09:50:06.271Z,62.30
2018-03-25T09:52:33.766Z,62.20
2018-03-25T09:55:01.268Z,62.00
2018-03-25T09:57:28.771Z,64.20
2018-03-25T09:59:56.256Z,62.10
2018-03-25T10:02:27.626Z,62.80
2018-03-25T10:04:55.111Z,62.50
2018-03-25T10:07:23.362Z,59.80
2018-03-25T10:09:50.865Z,59.80
2018-03-25T10:12:18.341Z,58.20
2018-03-25T10:14:45.814Z,60.60
2018-03-25T10:17:13.318Z,62.00
2018-03-25T10:19:41.566Z,59.00
2018-03-25T10:22:09.049Z,58.90
2018-03-25T10:24:37.318Z,63.80
2018-03-25T10:27:04.798Z,63.70
2018-03-25T10:29:32.278Z,60.30
2018-03-25T10:31:59.773Z,60.60
2018-03-25T10:34:27.254Z,61.60
2018-03-25T10:36:55.495Z,59.60
2018-03-25T10:39:22.992Z,59.60
2018-03-25T10:41:51.238Z,59.40
2018-03-25T10:44:18.725Z,59.40
2018-03-25T10:46:46.986Z,59.70
2018-03-25T10:49:14.473Z,59.70
2018-03-25T10:51:41.954Z,58.90
2018-03-25T10:54:09.468Z,58.90
2018-03-25T10:56:37.722Z,59.40
2018-03-25T10:59:05.223Z,59.30
2018-03-25T11:01:34.665Z,58.40
2018-03-25T11:04:02.911Z,57.00
2018-03-25T11:06:30.390Z,57.00
2018-03-25T11:08:57.886Z,60.20
2018-03-25T11:11:25.371Z,59.70
2018-03-25T11:13:52.857Z,57.60
2018-03-25T11:16:20.349Z,58.90
2018-03-25T11:18:47.826Z,57.20
2018-03-25T11:21:16.070Z,63.40
2018-03-25T11:23:43.576Z,63.40
2018-03-25T11:26:11.054Z,67.50
2018-03-25T11:28:38.531Z,64.10
2018-03-25T11:31:06.022Z,57.30
2018-03-25T11:33:33.501Z,56.20
2018-03-25T11:36:01.757Z,57.10
2018-03-25T11:38:30.028Z,57.70
2018-03-25T11:40:57.506Z,57.70
2018-03-25T11:43:24.985Z,56.50
2018-03-25T11:45:52.482Z,55.00
2018-03-25T11:48:19.953Z,54.60
2018-03-25T11:50:47.442Z,54.70
2018-03-25T11:53:14.977Z,57.70
2018-03-25T11:55:42.442Z,56.40
2018-03-25T11:58:10.691Z,58.30
2018-03-25T12:00:38.190Z,58.30
2018-03-25T12:03:05.673Z,52.60
2018-03-25T12:05:33.151Z,53.70
2018-03-25T12:08:00.642Z,56.70
2018-03-25T12:10:29.890Z,53.20
2018-03-25T12:12:57.370Z,53.10
2018-03-25T12:15:24.866Z,53.80
2018-03-25T12:17:53.115Z,56.50
2018-03-25T12:20:20.608Z,56.40
2018-03-25T12:22:48.108Z,55.80
2018-03-25T12:25:15.578Z,56.60
2018-03-25T12:27:43.062Z,55.60
2018-03-25T12:30:11.354Z,58.80
2018-03-25T12:32:38.835Z,58.80
2018-03-25T12:35:06.314Z,56.20
2018-03-25T12:37:33.822Z,54.60
2018-03-25T12:40:02.074Z,55.50
2018-03-25T12:42:29.590Z,55.50
2018-03-25T12:44:57.071Z,54.60
2018-03-25T12:47:24.563Z,55.10
2018-03-25T12:49:52.092Z,55.10
2018-03-25T12:52:19.561Z,53.40
2018-03-25T12:54:47.071Z,52.60
2018-03-25T12:57:14.558Z,54.10
2018-03-25T12:59:42.248Z,55.60
2018-03-25T13:02:10.502Z,55.00
2018-03-25T13:04:37.990Z,55.00
2018-03-25T13:07:06.272Z,59.10
2018-03-25T13:09:33.778Z,59.70
2018-03-25T13:12:01.259Z,54.20
2018-03-25T13:14:28.757Z,56.40
2018-03-25T13:16:56.247Z,56.10
2018-03-25T13:19:23.761Z,56.20
2018-03-25T13:21:51.246Z,59.20
2018-03-25T13:24:18.731Z,54.90
2018-03-25T13:26:46.421Z,52.10
2018-03-25T13:29:14.670Z,54.80
2018-03-25T13:31:42.150Z,54.70
2018-03-25T13:34:10.418Z,54.40
2018-03-25T13:36:37.893Z,53.90
2018-03-25T13:39:06.146Z,53.10
2018-03-25T13:41:33.715Z,53.10
2018-03-25T13:44:01.274Z,53.60
2018-03-25T13:46:29.527Z,53.60
2018-03-25T13:48:57.030Z,53.60
2018-03-25T13:51:24.515Z,55.10
2018-03-25T13:53:52.776Z,52.90
2018-03-25T13:56:20.294Z,52.90
2018-03-25T13:58:47.770Z,51.70
2018-03-25T14:01:16.015Z,53.00
2018-03-25T14:03:43.520Z,53.00
2018-03-25T14:06:11.006Z,55.30
2018-03-25T14:08:38.506Z,53.50
2018-03-25T14:11:06.762Z,53.60
2018-03-25T14:13:34.320Z,53.60
2018-03-25T14:16:01.824Z,53.60
2018-03-25T14:18:29.322Z,54.60
2018-03-25T14:20:56.811Z,53.30
2018-03-25T14:23:25.105Z,52.30
2018-03-25T14:25:52.614Z,52.40
2018-03-25T14:28:20.158Z,52.40
2018-03-25T14:30:47.686Z,52.60
2018-03-25T14:33:15.239Z,53.10
2018-03-25T14:35:42.741Z,54.90
2018-03-25T14:38:10.228Z,53.50
2018-03-25T14:40:37.751Z,53.90
2018-03-25T14:43:05.266Z,54.70
2018-03-25T14:45:33.562Z,53.90
2018-03-25T14:48:01.050Z,53.80
2018-03-25T14:50:28.566Z,54.60
2018-03-25T14:52:56.059Z,52.90
2018-03-25T14:55:24.394Z,52.40
2018-03-25T14:57:51.878Z,52.40
2018-03-25T15:00:19.359Z,52.80
2018-03-25T15:02:46.886Z,51.90
2018-03-25T15:05:14.358Z,54.20
2018-03-25T15:07:41.842Z,57.20
2018-03-25T15:10:09.359Z,55.90
2018-03-25T15:12:36.850Z,55.50
2018-03-25T15:15:04.350Z,53.80
2018-03-25T15:17:32.765Z,53.20
2018-03-25T15:20:00.251Z,53.20
2018-03-25T15:22:27.730Z,53.70
2018-03-25T15:24:55.998Z,54.20
2018-03-25T15:27:23.483Z,54.10
2018-03-25T15:29:50.979Z,54.10
2018-03-25T15:32:18.474Z,54.10
2018-03-25T15:34:45.954Z,54.40
2018-03-25T15:37:13.458Z,54.40
2018-03-25T15:39:40.949Z,54.30
2018-03-25T15:42:08.454Z,54.10
2018-03-25T15:44:36.003Z,53.60
2018-03-25T15:47:04.209Z,54.10
2018-03-25T15:49:31.682Z,54.10
2018-03-25T15:51:59.947Z,54.30
2018-03-25T15:54:27.443Z,54.30
2018-03-25T15:56:55.690Z,53.30
2018-03-25T15:59:23.200Z,53.20
2018-03-25T16:01:50.687Z,53.20
2018-03-25T16:04:18.170Z,52.60
2018-03-25T16:06:45.671Z,53.00
2018-03-25T16:09:13.159Z,54.30
2018-03-25T16:11:40.666Z,54.80
2018-03-25T16:14:08.923Z,55.60
2018-03-25T16:16:36.398Z,55.60
2018-03-25T16:19:04.658Z,56.10
2018-03-25T16:21:32.914Z,55.00
2018-03-25T16:24:00.422Z,55.00
2018-03-25T16:26:27.907Z,56.10
2018-03-25T16:28:55.391Z,55.60
2018-03-25T16:31:22.899Z,56.20
2018-03-25T16:33:50.385Z,56.50
2018-03-25T16:36:17.862Z,56.50
2018-03-25T16:38:45.388Z,56.70
2018-03-25T16:41:12.891Z,57.30
2018-03-25T16:43:40.370Z,57.60
2018-03-25T16:46:07.878Z,58.80
2018-03-25T16:48:35.363Z,58.00
2018-03-25T16:51:02.847Z,58.20
2018-03-25T16:53:30.387Z,59.20
2018-03-25T16:55:58.642Z,59.60
2018-03-25T16:58:26.159Z,59.50
2018-03-25T17:00:53.650Z,59.70
2018-03-25T17:03:21.134Z,60.00
2018-03-25T17:05:49.394Z,61.50
2018-03-25T17:08:16.877Z,61.40
2018-03-25T17:10:44.374Z,62.10
2018-03-25T17:13:12.663Z,65.90
2018-03-25T17:15:40.170Z,65.90
2018-03-25T17:18:07.663Z,65.90
2018-03-25T17:20:35.412Z,66.20
2018-03-25T17:23:02.900Z,67.20
2018-03-25T17:25:30.382Z,68.90
2018-03-25T17:27:57.892Z,70.60
2018-03-25T17:30:25.423Z,71.30
2018-03-25T17:32:52.915Z,72.00
2018-03-25T17:35:20.410Z,71.50
2018-03-25T17:37:47.894Z,73.10
2018-03-25T17:40:15.409Z,73.90
2018-03-25T17:42:42.942Z,75.20
2018-03-25T17:45:10.422Z,76.00
2018-03-25T17:47:37.924Z,77.00
2018-03-25T17:50:05.465Z,77.30
2018-03-25T17:52:32.907Z,78.50
2018-03-25T17:55:00.590Z,78.10
2018-03-25T17:57:28.842Z,78.10
2018-03-25T17:59:56.321Z,78.10
2018-03-25T18:02:24.595Z,79.00
2018-03-25T18:04:52.843Z,79.50
2018-03-25T18:07:20.318Z,79.40
2018-03-25T18:09:47.814Z,79.70
2018-03-25T18:12:15.298Z,78.40
2018-03-25T18:14:42.771Z,78.60
2018-03-25T18:17:33.460Z,78.80
2018-03-25T18:19:37.788Z,76.40
2018-03-25T18:22:05.274Z,75.10
2018-03-25T18:24:33.577Z,72.80
2018-03-25T18:27:01.803Z,72.40
2018-03-25T18:29:29.487Z,72.40
2018-03-25T18:31:57.738Z,72.20
2018-03-25T18:34:25.223Z,72.10
2018-03-25T18:36:53.510Z,72.70
2018-03-25T18:39:20.981Z,72.60
2018-03-25T18:41:48.483Z,72.90
2018-03-25T18:44:15.971Z,73.30
2018-03-25T18:46:44.219Z,73.40
2018-03-25T18:49:11.913Z,73.40
2018-03-25T18:51:39.402Z,73.40
2018-03-25T18:54:06.887Z,73.40
2018-03-25T18:56:34.415Z,75.30
2018-03-25T18:59:01.892Z,76.90
2018-03-25T19:01:29.379Z,79.20
2018-03-25T19:03:56.879Z,80.00
2018-03-25T19:06:24.360Z,80.70
2018-03-25T19:08:51.850Z,80.70
2018-03-25T19:11:19.373Z,80.30
2018-03-25T19:13:46.869Z,79.30
2018-03-25T19:16:14.374Z,78.50
2018-03-25T19:18:41.878Z,78.30
2018-03-25T19:21:09.374Z,77.90
2018-03-25T19:23:36.870Z,77.90
2018-03-25T19:26:04.406Z,77.00
2018-03-25T19:28:31.917Z,78.60
2018-03-25T19:31:00.182Z,78.10
2018-03-25T19:33:27.697Z,78.10
2018-03-25T19:35:55.178Z,78.10
2018-03-25T19:38:23.912Z,77.90
2018-03-25T19:40:51.406Z,78.10
2018-03-25T19:43:18.889Z,78.30
2018-03-25T19:45:46.441Z,79.20
2018-03-25T19:48:13.923Z,79.30
2018-03-25T19:50:41.492Z,79.20
2018-03-25T19:53:09.810Z,77.90
2018-03-25T19:55:37.298Z,77.90
2018-03-25T19:58:05.594Z,77.30
2018-03-25T20:00:33.883Z,78.80
2018-03-25T20:03:02.150Z,80.10
2018-03-25T20:05:30.439Z,79.70
2018-03-25T20:07:58.731Z,79.10
2018-03-25T20:10:26.227Z,79.00
2018-03-25T20:12:54.502Z,77.80
2018-03-25T20:15:22.027Z,78.20
2018-03-25T20:17:49.536Z,77.30
2018-03-25T20:20:17.023Z,77.50
2018-03-25T20:22:44.548Z,77.30
2018-03-25T20:25:12.082Z,77.40
2018-03-25T20:27:39.607Z,78.90
2018-03-25T20:30:07.119Z,80.40
2018-03-25T20:32:34.623Z,82.20
2018-03-25T20:35:02.118Z,82.70
2018-03-25T20:37:29.682Z,83.00
2018-03-25T20:39:57.230Z,83.20
2018-03-25T20:42:24.738Z,83.30
2018-03-25T20:44:53.245Z,83.20
2018-03-25T20:47:20.738Z,83.00
2018-03-25T20:49:48.242Z,83.10
2018-03-25T20:52:15.765Z,83.10
2018-03-25T20:54:43.273Z,82.90
2018-03-25T20:57:10.762Z,82.70
2018-03-25T20:59:38.279Z,82.80
2018-03-25T21:02:05.787Z,82.80
2018-03-25T21:04:33.274Z,82.80
2018-03-25T21:07:01.562Z,82.80
2018-03-25T21:09:29.806Z,83.60
2018-03-25T21:11:57.356Z,83.50
2018-03-25T21:14:24.834Z,83.70
2018-03-25T21:16:52.314Z,84.10
2018-03-25T21:19:19.821Z,84.40
2018-03-25T21:21:47.371Z,84.50
2018-03-25T21:24:14.865Z,84.60
2018-03-25T21:26:43.127Z,85.00
2018-03-25T21:29:10.649Z,84.80
2018-03-25T21:31:38.154Z,85.30
2018-03-25T21:34:05.651Z,85.80
2018-03-25T21:36:33.167Z,86.00
2018-03-25T21:39:00.660Z,86.30
2018-03-25T21:41:28.171Z,87.40
2018-03-25T21:43:55.706Z,87.30
2018-03-25T21:46:23.199Z,87.80
2018-03-25T21:48:50.702Z,88.10
2018-03-25T21:51:18.260Z,88.20
2018-03-25T21:53:45.754Z,88.40
2018-03-25T21:56:13.247Z,87.90
2018-03-25T21:58:41.566Z,88.20
2018-03-25T22:01:09.080Z,88.10
2018-03-25T22:03:37.334Z,88.20
2018-03-25T22:06:04.854Z,88.20
2018-03-25T22:08:32.348Z,89.00
2018-03-25T22:11:00.206Z,89.20
2018-03-25T22:13:27.709Z,89.30
2018-03-25T22:15:55.216Z,89.40
2018-03-25T22:18:43.348Z,89.50
2018-03-25T22:21:10.838Z,89.90
2018-03-25T22:23:38.395Z,89.70
2018-03-25T22:26:05.929Z,89.70
2018-03-25T22:28:33.430Z,89.40
2018-03-25T22:31:01.682Z,88.90
2018-03-25T22:33:29.199Z,88.70
2018-03-25T22:35:56.732Z,88.50
2018-03-25T22:38:24.235Z,88.70
2018-03-25T22:40:51.733Z,88.70
2018-03-25T22:43:20.058Z,88.00
2018-03-25T22:45:47.552Z,88.00
2018-03-25T22:48:15.035Z,87.30
2018-03-25T22:50:42.679Z,87.10
2018-03-25T22:53:10.950Z,87.00
2018-03-25T22:55:39.219Z,86.90
2018-03-25T22:58:06.730Z,86.80
2018-03-25T23:00:34.210Z,86.80
2018-03-25T23:03:01.882Z,87.20
2018-03-25T23:05:29.390Z,86.80
2018-03-25T23:07:56.886Z,86.40
2018-03-25T23:10:24.426Z,86.50
2018-03-25T23:12:51.939Z,86.50
2018-03-25T23:15:20.198Z,85.90
2018-03-25T23:17:47.748Z,85.80
2018-03-25T23:20:15.238Z,85.10
2018-03-25T23:22:43.498Z,85.10
2018-03-25T23:25:11.015Z,85.00
2018-03-25T23:27:38.522Z,84.50
2018-03-25T23:30:06.842Z,83.80
2018-03-25T23:32:34.335Z,83.80
2018-03-25T23:35:01.839Z,83.20
2018-03-25T23:37:29.365Z,83.00
2018-03-25T23:39:57.651Z,83.10
2018-03-25T23:42:25.936Z,82.80
2018-03-25T23:44:54.180Z,83.70
2018-03-25T23:47:21.670Z,83.60
2018-03-25T23:49:49.175Z,84.00
2018-03-25T23:52:16.668Z,83.90
2018-03-25T23:54:44.929Z,84.50
2018-03-25T23:57:12.623Z,84.40
2018-03-25T23:59:40.111Z,84.50
